»·PEaware :: CGOUP KSFO-KSEA

CGOUP :: KSFO-KSEA

FLIGHT INFORMATION

Flight Status: Arrived
Operator: Unknown
More flights by this operator :: More flights under this callsign
Pilot: Konrad W. (32064)
Aircraft: Cessna 700 Citation Longitude
(C700)
More flights by this aircraft type
Origin: KSFO San Francisco Intl
United States
Destination: KSEA Seattle-Tacoma Intl
United States
More flights between these airports :: More routes between these airports
Route: TRUKN2 GRTFL RBL J1 BTG HAWKZ7
File this flight plan on PilotEdge
Remarks:
Altitude:
(Current/Filed)
23,000ft
Speed:
(Current/Filed)
350kts
Departed: 16-Nov-20 09:40 PM
Arrived: 16-Nov-20 11:17 PM
Distance/Time
Traveled:
590nm/1:36
Distance/Time
To Go:
Arrived

Flight Plot

Page will automatically refresh every two minutes.

Flight plan parsing failed; only flown route is shown


Map Options




Map Legend


Flown Route
Filed Route
Departure Airport
Arrival Airport
Navaid (VOR, NDB)
Fix

Horizontal Profiles

Position Reports

Time Latitude Longitude Heading Altitude Ground
Speed
16-Nov-20 21:17 37.627082 -122.379459 0 7ft 0kts
16-Nov-20 21:18 37.627082 -122.379459 117 7ft 0kts
16-Nov-20 21:19 37.627082 -122.379459 117 7ft 0kts
16-Nov-20 21:20 37.627082 -122.379459 117 7ft 0kts
16-Nov-20 21:21 37.627082 -122.379459 117 7ft 0kts
16-Nov-20 21:22 37.627082 -122.379459 117 7ft 0kts
16-Nov-20 21:23 37.627082 -122.379459 117 7ft 0kts
16-Nov-20 21:24 37.627082 -122.379459 117 7ft 0kts
16-Nov-20 21:25 37.627082 -122.379459 117 7ft 0kts
16-Nov-20 21:26 37.627082 -122.379459 117 7ft 0kts
16-Nov-20 21:27 37.627082 -122.379459 117 7ft 0kts
16-Nov-20 21:28 37.627082 -122.379459 117 7ft 0kts
16-Nov-20 21:29 37.627082 -122.379459 117 7ft 0kts
16-Nov-20 21:30 37.627082 -122.379459 117 7ft 0kts
16-Nov-20 21:31 37.627082 -122.379459 117 7ft 0kts
16-Nov-20 21:32 37.627082 -122.379459 117 7ft 0kts
16-Nov-20 21:33 37.625967 -122.378511 203 7ft 10kts
16-Nov-20 21:34 37.623508 -122.376705 176 8ft 11kts
16-Nov-20 21:35 37.619988 -122.368816 117 11ft 33kts
16-Nov-20 21:36 37.617097 -122.361916 118 12ft 17kts
16-Nov-20 21:37 37.614458 -122.356778 191 17ft 0kts
16-Nov-20 21:38 37.614452 -122.356780 191 17ft 2kts
16-Nov-20 21:39 37.620804 -122.374576 297 83ft 189kts
16-Nov-20 21:40 37.672409 -122.458967 340 1505ft 342kts
16-Nov-20 21:41 37.716834 -122.414605 98 2445ft 230kts
16-Nov-20 21:42 37.707698 -122.334380 81 3858ft 238kts
16-Nov-20 21:43 37.715180 -122.247664 88 5351ft 257kts
16-Nov-20 21:44 37.756303 -122.193433 348 6835ft 270kts
16-Nov-20 21:45 37.829390 -122.216575 347 8433ft 276kts
16-Nov-20 21:46 37.906615 -122.219075 354 9903ft 282kts
16-Nov-20 21:47 37.986262 -122.221508 355 11444ft 291kts
16-Nov-20 21:48 38.072191 -122.223964 355 13128ft 341kts
16-Nov-20 21:49 38.167811 -122.226543 355 14841ft 351kts
16-Nov-20 21:50 38.266221 -122.229183 354 16605ft 360kts
16-Nov-20 21:51 38.367241 -122.232037 356 18359ft 372kts
16-Nov-20 21:52 38.465416 -122.232116 354 19913ft 355kts
16-Nov-20 21:53 38.565499 -122.232202 354 21651ft 366kts
16-Nov-20 21:54 38.668655 -122.232391 354 22942ft 381kts
16-Nov-20 21:55 38.774273 -122.232636 354 23024ft 380kts
16-Nov-20 21:56 38.879436 -122.232939 354 22990ft 379kts
16-Nov-20 21:57 38.984910 -122.233203 354 23011ft 380kts
16-Nov-20 21:58 39.090124 -122.233496 354 23153ft 381kts
16-Nov-20 21:59 39.195924 -122.233798 354 23163ft 383kts
16-Nov-20 22:00 39.309847 -122.234100 355 23249ft 443kts
16-Nov-20 22:01 39.432473 -122.234489 354 23170ft 442kts
16-Nov-20 22:02 39.555272 -122.234839 354 23160ft 442kts
16-Nov-20 22:03 39.677657 -122.235164 354 23159ft 442kts
16-Nov-20 22:04 39.800034 -122.235502 354 23158ft 441kts
16-Nov-20 22:05 39.922442 -122.235848 354 23157ft 441kts
16-Nov-20 22:06 40.044612 -122.236195 353 23158ft 442kts
16-Nov-20 22:07 40.164137 -122.252521 335 23161ft 427kts
16-Nov-20 22:08 40.280699 -122.285424 339 23165ft 429kts
16-Nov-20 22:09 40.397182 -122.317734 340 23170ft 430kts
16-Nov-20 22:10 40.513820 -122.350293 340 23158ft 431kts
16-Nov-20 22:12 40.630332 -122.382871 341 23176ft 430kts
16-Nov-20 22:13 40.746698 -122.415434 341 23174ft 430kts
16-Nov-20 22:14 40.862883 -122.448010 341 23132ft 428kts
16-Nov-20 22:15 40.979186 -122.480670 341 23120ft 426kts
16-Nov-20 22:16 41.095400 -122.513383 341 23184ft 430kts
16-Nov-20 22:17 41.211701 -122.546298 341 23140ft 428kts
16-Nov-20 22:18 41.327862 -122.579322 341 23144ft 430kts
16-Nov-20 22:19 41.444650 -122.612604 341 23182ft 430kts
16-Nov-20 22:20 41.560824 -122.645829 341 23003ft 426kts
16-Nov-20 22:21 41.677051 -122.679190 341 23106ft 428kts
16-Nov-20 22:22 41.793086 -122.712583 341 23091ft 427kts
16-Nov-20 22:23 41.909024 -122.746074 340 23080ft 427kts
16-Nov-20 22:24 42.024537 -122.779566 341 23130ft 427kts
16-Nov-20 22:25 42.140435 -122.813350 341 23137ft 428kts
16-Nov-20 22:26 42.255967 -122.847160 340 23054ft 427kts
16-Nov-20 22:27 42.371320 -122.881045 341 23069ft 427kts
16-Nov-20 22:27 42.467818 -122.907715 345 23076ft 430kts
16-Nov-20 22:29 42.608947 -122.899075 356 23061ft 439kts
16-Nov-20 22:29 42.709874 -122.890667 0 23030ft 441kts
16-Nov-20 22:31 42.852290 -122.877485 358 22990ft 439kts
16-Nov-20 22:31 42.953683 -122.868548 358 23057ft 441kts
16-Nov-20 22:33 43.095517 -122.855002 358 23072ft 440kts
16-Nov-20 22:33 43.196740 -122.845514 357 22940ft 436kts
16-Nov-20 22:35 43.338858 -122.831879 357 23037ft 442kts
16-Nov-20 22:36 43.460654 -122.820176 357 23142ft 441kts
16-Nov-20 22:36 43.561726 -122.810450 357 23064ft 439kts
16-Nov-20 22:37 43.682819 -122.798759 356 23030ft 438kts
16-Nov-20 22:38 43.804336 -122.786936 356 22983ft 437kts
16-Nov-20 22:39 43.925212 -122.775142 356 23015ft 437kts
16-Nov-20 22:40 44.045908 -122.763359 356 23045ft 436kts
16-Nov-20 22:41 44.166747 -122.751483 356 23029ft 435kts
16-Nov-20 22:42 44.286838 -122.739655 356 23045ft 435kts
16-Nov-20 22:43 44.406964 -122.727757 356 23018ft 434kts
16-Nov-20 22:44 44.526976 -122.715822 356 23015ft 433kts
16-Nov-20 22:45 44.646824 -122.703825 356 22998ft 433kts
16-Nov-20 22:46 44.766734 -122.691784 356 22998ft 432kts
16-Nov-20 22:47 44.886242 -122.679745 356 22994ft 432kts
16-Nov-20 22:48 45.006272 -122.667623 357 22974ft 432kts
16-Nov-20 22:49 45.125919 -122.655509 357 23033ft 432kts
16-Nov-20 22:50 45.245464 -122.643443 357 23031ft 433kts
16-Nov-20 22:51 45.365237 -122.631145 357 23039ft 434kts
16-Nov-20 22:52 45.485021 -122.618778 357 23053ft 434kts
16-Nov-20 22:53 45.604582 -122.606430 357 23034ft 434kts
16-Nov-20 22:54 45.724375 -122.594495 355 22975ft 433kts
16-Nov-20 22:55 45.839334 -122.615354 338 23152ft 414kts
16-Nov-20 22:56 45.952346 -122.642367 339 22896ft 394kts
16-Nov-20 22:57 46.064162 -122.670127 339 22446ft 411kts
16-Nov-20 22:58 46.174387 -122.692360 342 21240ft 384kts
16-Nov-20 22:59 46.278164 -122.713326 343 19745ft 376kts
16-Nov-20 23:00 46.382502 -122.723404 353 18228ft 379kts
16-Nov-20 23:01 46.486317 -122.727990 353 16678ft 376kts
16-Nov-20 23:02 46.588739 -122.731987 352 15090ft 370kts
16-Nov-20 23:03 46.690535 -122.735627 351 13508ft 365kts
16-Nov-20 23:04 46.790367 -122.724509 17 12035ft 353kts
16-Nov-20 23:05 46.867055 -122.640462 40 11588ft 351kts
16-Nov-20 23:06 46.942556 -122.555434 40 10186ft 339kts
16-Nov-20 23:07 47.015092 -122.473348 40 8770ft 323kts
16-Nov-20 23:08 47.081094 -122.398091 40 7148ft 286kts
16-Nov-20 23:09 47.146468 -122.340490 23 5642ft 263kts
16-Nov-20 23:10 47.206301 -122.320767 9 4767ft 212kts
16-Nov-20 23:11 47.257273 -122.319626 3 3987ft 194kts
16-Nov-20 23:12 47.297269 -122.319277 3 3359ft 181kts
16-Nov-20 23:13 47.336888 -122.319003 5 2454ft 139kts
16-Nov-20 23:14 47.377300 -122.318586 4 1714ft 151kts
16-Nov-20 23:15 47.418709 -122.318240 2 817ft 153kts
16-Nov-20 23:16 47.450057 -122.318062 359 380ft 24kts
16-Nov-20 23:17 47.454847 -122.315532 65 396ft 19kts
16-Nov-20 23:18 47.455740 -122.307559 93 405ft 13kts
16-Nov-20 23:19 47.451175 -122.306240 180 392ft 19kts
16-Nov-20 23:20 47.449988 -122.302047 131 389ft 15kts
16-Nov-20 23:21 47.449072 -122.302099 248 388ft 0kts
16-Nov-20 23:22 47.449072 -122.302099 248 388ft 0kts
16-Nov-20 23:23 47.449072 -122.302099 248 388ft 0kts
16-Nov-20 23:24 47.449072 -122.302099 248 388ft 0kts

Navigation Log

Ident Type
Flight plan parsing failed, navigation log unavailable